createdAt,value
2018-11-10T00:00:56.277Z,996.46
2018-11-10T00:01:56.271Z,996.47
2018-11-10T00:02:56.265Z,996.48
2018-11-10T00:03:56.258Z,996.46
2018-11-10T00:04:56.252Z,996.44
2018-11-10T00:05:56.247Z,996.46
2018-11-10T00:06:56.245Z,996.41
2018-11-10T00:07:56.264Z,996.43
2018-11-10T00:08:56.228Z,996.39
2018-11-10T00:09:56.239Z,996.40
2018-11-10T00:10:56.216Z,996.35
2018-11-10T00:11:56.209Z,996.36
2018-11-10T00:12:56.206Z,996.35
2018-11-10T00:13:56.201Z,996.31
2018-11-10T00:14:56.194Z,996.32
2018-11-10T00:15:56.195Z,996.35
2018-11-10T00:16:56.179Z,996.37
2018-11-10T00:17:56.175Z,996.37
2018-11-10T00:18:56.167Z,996.34
2018-11-10T00:19:56.167Z,996.33
2018-11-10T00:20:56.158Z,996.32
2018-11-10T00:21:56.158Z,996.32
2018-11-10T00:22:56.165Z,996.34
2018-11-10T00:23:56.136Z,996.30
2018-11-10T00:24:56.130Z,996.28
2018-11-10T00:25:56.124Z,996.27
2018-11-10T00:26:56.192Z,996.29
2018-11-10T00:27:56.111Z,996.28
2018-11-10T00:28:56.105Z,996.30
2018-11-10T00:29:56.097Z,996.28
2018-11-10T00:30:56.094Z,996.31
2018-11-10T00:31:56.110Z,996.35
2018-11-10T00:32:56.079Z,996.35
2018-11-10T00:33:56.078Z,996.38
2018-11-10T00:34:56.068Z,996.34
2018-11-10T00:35:56.062Z,996.36
2018-11-10T00:36:56.052Z,996.32
2018-11-10T00:37:56.051Z,996.32
2018-11-10T00:38:56.045Z,996.29
2018-11-10T00:39:56.036Z,996.23
2018-11-10T00:40:56.028Z,996.27
2018-11-10T00:41:56.026Z,996.30
2018-11-10T00:42:56.016Z,996.27
2018-11-10T00:43:56.012Z,996.30
2018-11-10T00:44:56.003Z,996.36
2018-11-10T00:45:56.033Z,996.32
2018-11-10T00:46:55.992Z,996.31
2018-11-10T00:47:55.989Z,996.30
2018-11-10T00:48:55.988Z,996.29
2018-11-10T00:49:55.973Z,996.27
2018-11-10T00:50:55.966Z,996.32
2018-11-10T00:51:55.962Z,996.25
2018-11-10T00:52:55.952Z,996.27
2018-11-10T00:53:55.949Z,996.28
2018-11-10T00:54:55.940Z,996.22
2018-11-10T00:55:55.936Z,996.24
2018-11-10T00:56:55.931Z,996.28
2018-11-10T00:57:55.917Z,996.29
2018-11-10T00:58:55.917Z,996.31
2018-11-10T00:59:55.911Z,996.30
2018-11-10T01:00:55.908Z,996.30
2018-11-10T01:01:55.899Z,996.30
2018-11-10T01:02:55.896Z,996.28
2018-11-10T01:03:55.885Z,996.26
2018-11-10T01:04:55.887Z,996.28
2018-11-10T01:05:55.871Z,996.27
2018-11-10T01:06:55.868Z,996.25
2018-11-10T01:07:55.895Z,996.29
2018-11-10T01:08:55.855Z,996.30
2018-11-10T01:09:55.853Z,996.26
2018-11-10T01:10:55.840Z,996.32
2018-11-10T01:11:55.836Z,996.28
2018-11-10T01:12:55.830Z,996.29
2018-11-10T01:13:55.820Z,996.27
2018-11-10T01:14:55.817Z,996.28
2018-11-10T01:15:55.813Z,996.31
2018-11-10T01:16:55.808Z,996.29
2018-11-10T01:17:55.799Z,996.27
2018-11-10T01:18:55.796Z,996.28
2018-11-10T01:19:55.788Z,996.30
2018-11-10T01:20:55.778Z,996.27
2018-11-10T01:21:55.772Z,996.23
2018-11-10T01:22:55.766Z,996.25
2018-11-10T01:23:55.762Z,996.20
2018-11-10T01:24:55.756Z,996.20
2018-11-10T01:25:55.749Z,996.21
2018-11-10T01:26:55.745Z,996.23
2018-11-10T01:27:55.882Z,996.20
2018-11-10T01:28:55.734Z,996.21
2018-11-10T01:29:55.723Z,996.20
2018-11-10T01:30:55.719Z,996.20
2018-11-10T01:31:55.711Z,996.20
2018-11-10T01:32:55.705Z,996.14
2018-11-10T01:33:55.700Z,996.14
2018-11-10T01:34:55.694Z,996.11
2018-11-10T01:35:55.687Z,996.08
2018-11-10T01:36:55.681Z,996.11
2018-11-10T01:37:55.674Z,996.09
2018-11-10T01:38:55.670Z,996.10
2018-11-10T01:39:55.664Z,996.05
2018-11-10T01:40:55.655Z,996.07
2018-11-10T01:41:55.648Z,996.04
2018-11-10T01:42:55.645Z,996.02
2018-11-10T01:43:55.636Z,996.02
2018-11-10T01:44:55.629Z,996.01
2018-11-10T01:45:55.625Z,996.01
2018-11-10T01:46:55.617Z,995.98
2018-11-10T01:47:55.613Z,995.98
2018-11-10T01:48:55.606Z,995.99
2018-11-10T01:49:55.599Z,995.99
2018-11-10T01:50:55.612Z,995.98
2018-11-10T01:51:55.586Z,996.01
2018-11-10T01:52:55.579Z,995.97
2018-11-10T01:53:55.579Z,995.99
2018-11-10T01:54:55.569Z,995.99
2018-11-10T01:55:55.565Z,995.97
2018-11-10T01:56:55.556Z,995.92
2018-11-10T01:57:55.549Z,995.93
2018-11-10T01:58:55.543Z,995.88
2018-11-10T01:59:55.538Z,995.83
2018-11-10T02:00:55.532Z,995.83
2018-11-10T02:01:55.533Z,995.81
2018-11-10T02:02:55.521Z,995.79
2018-11-10T02:03:55.514Z,995.80
2018-11-10T02:04:55.507Z,995.70
2018-11-10T02:05:55.498Z,995.76
2018-11-10T02:06:55.496Z,995.66
2018-11-10T02:07:55.487Z,995.63
2018-11-10T02:08:55.482Z,995.61
2018-11-10T02:09:55.474Z,995.64
2018-11-10T02:10:55.469Z,995.60
2018-11-10T02:11:55.462Z,995.60
2018-11-10T02:12:55.457Z,995.60
2018-11-10T02:13:55.449Z,995.56
2018-11-10T02:14:55.443Z,995.57
2018-11-10T02:15:55.448Z,995.55
2018-11-10T02:16:55.431Z,995.53
2018-11-10T02:17:55.429Z,995.55
2018-11-10T02:18:55.419Z,995.54
2018-11-10T02:19:55.411Z,995.51
2018-11-10T02:20:55.418Z,995.47
2018-11-10T02:21:55.402Z,995.44
2018-11-10T02:22:55.397Z,995.45
2018-11-10T02:23:55.390Z,995.45
2018-11-10T02:24:55.381Z,995.39
2018-11-10T02:25:55.378Z,995.38
2018-11-10T02:26:55.370Z,995.40
2018-11-10T02:27:55.365Z,995.42
2018-11-10T02:28:55.356Z,995.42
2018-11-10T02:29:55.397Z,995.45
2018-11-10T02:30:55.364Z,995.51
2018-11-10T02:31:55.340Z,995.50
2018-11-10T02:32:55.331Z,995.53
2018-11-10T02:33:55.332Z,995.54
2018-11-10T02:34:55.318Z,995.49
2018-11-10T02:35:55.313Z,995.52
2018-11-10T02:36:55.307Z,995.47
2018-11-10T02:37:55.296Z,995.46
2018-11-10T02:38:55.293Z,995.45
2018-11-10T02:39:55.288Z,995.40
2018-11-10T02:40:55.285Z,995.38
2018-11-10T02:41:55.277Z,995.39
2018-11-10T02:42:55.267Z,995.39
2018-11-10T02:43:55.265Z,995.36
2018-11-10T02:44:55.254Z,995.42
2018-11-10T02:45:55.253Z,995.37
2018-11-10T02:46:55.238Z,995.39
2018-11-10T02:47:55.237Z,995.42
2018-11-10T02:48:55.230Z,995.35
2018-11-10T02:49:55.224Z,995.31
2018-11-10T02:50:55.216Z,995.31
2018-11-10T02:51:55.212Z,995.28
2018-11-10T02:52:55.209Z,995.27
2018-11-10T02:53:55.200Z,995.30
2018-11-10T02:54:55.189Z,995.31
2018-11-10T02:55:55.189Z,995.35
2018-11-10T02:56:55.180Z,995.33
2018-11-10T02:57:55.172Z,995.29
2018-11-10T02:58:55.167Z,995.30
2018-11-10T02:59:55.160Z,995.27
2018-11-10T03:00:55.154Z,995.30
2018-11-10T03:01:55.147Z,995.28
2018-11-10T03:02:55.148Z,995.28
2018-11-10T03:03:55.141Z,995.25
2018-11-10T03:04:55.131Z,995.25
2018-11-10T03:05:55.120Z,995.31
2018-11-10T03:06:55.114Z,995.28
2018-11-10T03:07:55.106Z,995.34
2018-11-10T03:08:55.100Z,995.31
2018-11-10T03:09:55.093Z,995.30
2018-11-10T03:10:55.137Z,995.29
2018-11-10T03:11:55.083Z,995.29
2018-11-10T03:12:55.077Z,995.25
2018-11-10T03:13:55.069Z,995.29
2018-11-10T03:14:55.062Z,995.29
2018-11-10T03:15:55.052Z,995.30
2018-11-10T03:16:55.051Z,995.28
2018-11-10T03:17:55.042Z,995.27
2018-11-10T03:18:55.035Z,995.24
2018-11-10T03:19:55.029Z,995.25
2018-11-10T03:20:55.021Z,995.22
2018-11-10T03:21:55.016Z,995.25
2018-11-10T03:22:55.008Z,995.24
2018-11-10T03:23:55.002Z,995.24
2018-11-10T03:24:54.997Z,995.25
2018-11-10T03:25:54.990Z,995.25
2018-11-10T03:26:54.984Z,995.22
2018-11-10T03:27:54.978Z,995.21
2018-11-10T03:28:54.970Z,995.21
2018-11-10T03:29:54.964Z,995.21
2018-11-10T03:30:54.956Z,995.20
2018-11-10T03:31:54.961Z,995.16
2018-11-10T03:32:54.946Z,995.13
2018-11-10T03:33:54.942Z,995.08
2018-11-10T03:34:54.930Z,995.08
2018-11-10T03:35:54.923Z,995.07
2018-11-10T03:36:54.915Z,995.03
2018-11-10T03:37:54.910Z,995.04
2018-11-10T03:38:54.902Z,994.96
2018-11-10T03:39:54.896Z,994.95
2018-11-10T03:40:54.891Z,994.94
2018-11-10T03:41:54.883Z,994.98
2018-11-10T03:42:54.875Z,994.90
2018-11-10T03:43:54.871Z,994.89
2018-11-10T03:44:54.864Z,994.90
2018-11-10T03:45:54.871Z,994.87
2018-11-10T03:46:54.875Z,994.85
2018-11-10T03:47:54.849Z,994.86
2018-11-10T03:48:54.905Z,994.88
2018-11-10T03:49:54.829Z,994.79
2018-11-10T03:50:54.823Z,994.84
2018-11-10T03:51:54.820Z,994.82
2018-11-10T03:52:54.815Z,994.84
2018-11-10T03:53:54.803Z,994.81
2018-11-10T03:54:54.798Z,994.85
2018-11-10T03:55:54.789Z,994.82
2018-11-10T03:56:54.783Z,994.79
2018-11-10T03:57:54.780Z,994.79
2018-11-10T03:58:54.783Z,994.80
2018-11-10T03:59:54.764Z,994.83
2018-11-10T04:00:54.760Z,994.76
2018-11-10T04:01:54.750Z,994.76
2018-11-10T04:02:54.742Z,994.81
2018-11-10T04:03:54.738Z,994.80
2018-11-10T04:04:54.730Z,994.80
2018-11-10T04:05:54.726Z,994.82
2018-11-10T04:06:54.713Z,994.79
2018-11-10T04:07:54.711Z,994.80
2018-11-10T04:08:54.700Z,994.78
2018-11-10T04:09:54.695Z,994.76
2018-11-10T04:10:54.689Z,994.75
2018-11-10T04:11:54.682Z,994.71
2018-11-10T04:12:54.674Z,994.71
2018-11-10T04:13:54.668Z,994.66
2018-11-10T04:14:54.656Z,994.65
2018-11-10T04:15:54.655Z,994.72
2018-11-10T04:16:54.648Z,994.68
2018-11-10T04:17:54.644Z,994.68
2018-11-10T04:18:54.630Z,994.67
2018-11-10T04:19:54.627Z,994.68
2018-11-10T04:20:54.627Z,994.67
2018-11-10T04:21:54.614Z,994.66
2018-11-10T04:22:54.606Z,994.64
2018-11-10T04:23:54.598Z,994.62
2018-11-10T04:24:54.592Z,994.65
2018-11-10T04:25:54.587Z,994.68
2018-11-10T04:26:54.581Z,994.61
2018-11-10T04:27:54.573Z,994.62
2018-11-10T04:28:54.567Z,994.61
2018-11-10T04:29:54.558Z,994.59
2018-11-10T04:30:54.552Z,994.56
2018-11-10T04:31:54.546Z,994.56
2018-11-10T04:32:54.538Z,994.57
2018-11-10T04:33:54.531Z,994.59
2018-11-10T04:34:54.530Z,994.57
2018-11-10T04:35:54.521Z,994.59
2018-11-10T04:36:54.530Z,994.54
2018-11-10T04:37:54.504Z,994.55
2018-11-10T04:38:54.500Z,994.56
2018-11-10T04:39:54.493Z,994.52
2018-11-10T04:40:54.487Z,994.44
2018-11-10T04:41:54.480Z,994.43
2018-11-10T04:42:54.472Z,994.43
2018-11-10T04:43:54.465Z,994.38
2018-11-10T04:44:54.456Z,994.37
2018-11-10T04:45:54.452Z,994.36
2018-11-10T04:46:54.444Z,994.36
2018-11-10T04:47:54.439Z,994.33
2018-11-10T04:48:54.432Z,994.37
2018-11-10T04:49:54.486Z,994.30
2018-11-10T04:50:54.418Z,994.33
2018-11-10T04:51:54.412Z,994.33
2018-11-10T04:52:54.404Z,994.30
2018-11-10T04:53:54.400Z,994.32
2018-11-10T04:54:54.396Z,994.30
2018-11-10T04:55:54.385Z,994.35
2018-11-10T04:56:54.376Z,994.31
2018-11-10T04:57:54.373Z,994.35
2018-11-10T04:58:54.362Z,994.31
2018-11-10T04:59:54.358Z,994.31
2018-11-10T05:00:54.349Z,994.29
2018-11-10T05:01:54.345Z,994.28
2018-11-10T05:02:54.335Z,994.26
2018-11-10T05:03:54.332Z,994.25
2018-11-10T05:04:54.325Z,994.22
2018-11-10T05:05:54.317Z,994.21
2018-11-10T05:06:54.306Z,994.19
2018-11-10T05:07:54.303Z,994.18
2018-11-10T05:08:54.314Z,994.18
2018-11-10T05:09:54.294Z,994.18
2018-11-10T05:10:54.283Z,994.16
2018-11-10T05:11:54.277Z,994.12
2018-11-10T05:12:54.269Z,994.14
2018-11-10T05:13:54.263Z,994.12
2018-11-10T05:14:54.259Z,994.10
2018-11-10T05:15:54.248Z,994.11
2018-11-10T05:16:54.242Z,994.09
2018-11-10T05:17:54.241Z,994.11
2018-11-10T05:18:54.230Z,994.09
2018-11-10T05:19:54.223Z,994.04
2018-11-10T05:20:54.216Z,994.03
2018-11-10T05:21:54.214Z,994.05
2018-11-10T05:22:54.201Z,994.04
2018-11-10T05:23:54.197Z,994.02
2018-11-10T05:24:54.191Z,994.02
2018-11-10T05:25:54.184Z,994.04
2018-11-10T05:26:54.175Z,994.00
2018-11-10T05:27:54.171Z,993.98
2018-11-10T05:28:54.164Z,994.01
2018-11-10T05:29:54.156Z,994.01
2018-11-10T05:30:54.177Z,993.92
2018-11-10T05:31:54.143Z,993.93
2018-11-10T05:32:54.136Z,993.92
2018-11-10T05:33:54.130Z,993.94
2018-11-10T05:34:54.130Z,993.93
2018-11-10T05:35:54.124Z,993.93
2018-11-10T05:36:54.126Z,993.93
2018-11-10T05:37:54.108Z,993.94
2018-11-10T05:38:54.113Z,993.96
2018-11-10T05:39:54.095Z,993.95
2018-11-10T05:40:54.082Z,993.93
2018-11-10T05:41:54.079Z,993.92
2018-11-10T05:42:54.071Z,993.93
2018-11-10T05:43:54.062Z,993.97
2018-11-10T05:44:54.051Z,993.96
2018-11-10T05:45:54.048Z,993.94
2018-11-10T05:46:54.050Z,993.95
2018-11-10T05:47:54.035Z,993.91
2018-11-10T05:48:54.028Z,993.96
2018-11-10T05:49:54.022Z,993.93
2018-11-10T05:50:54.021Z,993.90
2018-11-10T05:51:54.010Z,993.89
2018-11-10T05:52:54.007Z,993.87
2018-11-10T05:53:53.994Z,993.88
2018-11-10T05:54:53.988Z,993.84
2018-11-10T05:55:53.982Z,993.84
2018-11-10T05:56:54.003Z,993.84
2018-11-10T05:57:53.968Z,993.84
2018-11-10T05:58:53.961Z,993.88
2018-11-10T05:59:53.956Z,993.80
2018-11-10T06:00:53.949Z,993.84
2018-11-10T06:01:53.989Z,993.86
2018-11-10T06:02:53.936Z,993.87
2018-11-10T06:03:53.928Z,993.86
2018-11-10T06:04:53.927Z,993.84
2018-11-10T06:05:53.915Z,993.81
2018-11-10T06:06:53.910Z,993.79
2018-11-10T06:07:53.906Z,993.79
2018-11-10T06:08:53.895Z,993.76
2018-11-10T06:09:54.007Z,993.78
2018-11-10T06:10:53.883Z,993.76
2018-11-10T06:11:53.877Z,993.72
2018-11-10T06:12:53.881Z,993.74
2018-11-10T06:13:53.862Z,993.74
2018-11-10T06:14:53.854Z,993.76
2018-11-10T06:15:53.857Z,993.77
2018-11-10T06:16:53.844Z,993.70
2018-11-10T06:17:53.835Z,993.74
2018-11-10T06:18:53.907Z,993.72
2018-11-10T06:19:53.827Z,993.77
2018-11-10T06:20:53.815Z,993.79
2018-11-10T06:21:53.809Z,993.80
2018-11-10T06:22:53.804Z,993.77
2018-11-10T06:23:53.800Z,993.80
2018-11-10T06:24:53.791Z,993.85
2018-11-10T06:25:53.791Z,993.82
2018-11-10T06:26:53.778Z,993.81
2018-11-10T06:27:53.772Z,993.83
2018-11-10T06:28:53.767Z,993.82
2018-11-10T06:29:53.760Z,993.83
2018-11-10T06:30:53.755Z,993.83
2018-11-10T06:31:53.745Z,993.82
2018-11-10T06:32:53.738Z,993.80
2018-11-10T06:33:53.732Z,993.82
2018-11-10T06:34:53.729Z,993.82
2018-11-10T06:35:53.721Z,993.84
2018-11-10T06:36:53.711Z,993.86
2018-11-10T06:37:53.706Z,993.84
2018-11-10T06:38:53.701Z,993.85
2018-11-10T06:39:53.693Z,993.85
2018-11-10T06:40:53.686Z,993.88
2018-11-10T06:41:53.681Z,993.89
2018-11-10T06:42:53.674Z,993.90
2018-11-10T06:43:53.667Z,993.89
2018-11-10T06:44:53.659Z,993.93
2018-11-10T06:45:53.650Z,993.95
2018-11-10T06:46:53.702Z,993.93
2018-11-10T06:47:53.641Z,993.96
2018-11-10T06:48:53.634Z,993.96
2018-11-10T06:49:53.628Z,993.97
2018-11-10T06:50:53.626Z,993.98
2018-11-10T06:51:53.614Z,994.00
2018-11-10T06:52:53.651Z,993.95
2018-11-10T06:53:53.601Z,993.95
2018-11-10T06:54:53.595Z,993.94
2018-11-10T06:55:53.590Z,993.90
2018-11-10T06:56:53.601Z,993.89
2018-11-10T06:57:53.577Z,993.89
2018-11-10T06:58:53.565Z,993.89
2018-11-10T06:59:53.563Z,993.89
2018-11-10T07:00:53.557Z,993.85
2018-11-10T07:01:53.555Z,993.85
2018-11-10T07:02:53.546Z,993.86
2018-11-10T07:03:53.538Z,993.83
2018-11-10T07:04:53.531Z,993.85
2018-11-10T07:05:53.525Z,993.84
2018-11-10T07:06:53.517Z,993.87
2018-11-10T07:07:53.511Z,993.86
2018-11-10T07:08:53.504Z,993.88
2018-11-10T07:09:53.501Z,993.90
2018-11-10T07:10:53.494Z,993.86
2018-11-10T07:11:53.485Z,993.87
2018-11-10T07:12:53.478Z,993.86
2018-11-10T07:13:53.468Z,993.85
2018-11-10T07:14:53.463Z,993.83
2018-11-10T07:15:53.471Z,993.80
2018-11-10T07:16:53.457Z,993.79
2018-11-10T07:17:53.504Z,993.85
2018-11-10T07:18:53.445Z,993.81
2018-11-10T07:19:53.433Z,993.87
2018-11-10T07:20:53.428Z,993.87
2018-11-10T07:21:53.423Z,993.92
2018-11-10T07:22:53.422Z,993.91
2018-11-10T07:23:53.410Z,993.90
2018-11-10T07:24:53.453Z,993.90
2018-11-10T07:25:53.396Z,993.83
2018-11-10T07:26:53.392Z,993.84
2018-11-10T07:27:53.386Z,993.86
2018-11-10T07:28:53.377Z,993.86
2018-11-10T07:29:53.370Z,993.87
2018-11-10T07:30:53.364Z,993.80
2018-11-10T07:31:53.370Z,993.83
2018-11-10T07:32:53.350Z,993.79
2018-11-10T07:33:53.347Z,993.79
2018-11-10T07:34:53.337Z,993.80
2018-11-10T07:35:53.336Z,993.75
2018-11-10T07:36:53.327Z,993.74
2018-11-10T07:37:53.325Z,993.74
2018-11-10T07:38:53.355Z,993.75
2018-11-10T07:39:53.323Z,993.74
2018-11-10T07:40:53.315Z,993.74
2018-11-10T07:41:53.296Z,993.77
2018-11-10T07:42:53.325Z,993.80
2018-11-10T07:43:53.283Z,993.79
2018-11-10T07:44:53.279Z,993.81
2018-11-10T07:45:53.271Z,993.84
2018-11-10T07:46:53.262Z,993.78
2018-11-10T07:47:53.258Z,993.68
2018-11-10T07:48:53.250Z,993.63
2018-11-10T07:49:53.250Z,993.63
2018-11-10T07:50:53.237Z,993.56
2018-11-10T07:51:53.234Z,993.55
2018-11-10T07:52:53.225Z,993.56
2018-11-10T07:53:53.220Z,993.53
2018-11-10T07:54:53.214Z,993.52
2018-11-10T07:55:53.217Z,993.54
2018-11-10T07:56:53.202Z,993.55
2018-11-10T07:57:53.199Z,993.59
2018-11-10T07:58:53.190Z,993.62
2018-11-10T07:59:53.183Z,993.66
2018-11-10T08:00:53.178Z,993.65
2018-11-10T08:01:53.173Z,993.70
2018-11-10T08:02:53.167Z,993.70
2018-11-10T08:03:53.160Z,993.70
2018-11-10T08:04:53.159Z,993.68
2018-11-10T08:05:53.147Z,993.70
2018-11-10T08:06:53.142Z,993.66
2018-11-10T08:07:53.136Z,993.66
2018-11-10T08:08:53.132Z,993.62
2018-11-10T08:09:53.121Z,993.65
2018-11-10T08:10:53.122Z,993.66
2018-11-10T08:11:53.182Z,993.58
2018-11-10T08:12:53.106Z,993.56
2018-11-10T08:13:53.099Z,993.60
2018-11-10T08:14:53.094Z,993.54
2018-11-10T08:15:53.086Z,993.53
2018-11-10T08:16:53.082Z,993.54
2018-11-10T08:17:53.076Z,993.57
2018-11-10T08:18:53.069Z,993.53
2018-11-10T08:19:53.065Z,993.52
2018-11-10T08:20:53.056Z,993.53
2018-11-10T08:21:53.052Z,993.52
2018-11-10T08:22:53.046Z,993.50
2018-11-10T08:23:53.038Z,993.52
2018-11-10T08:24:53.062Z,993.51
2018-11-10T08:25:53.052Z,993.51
2018-11-10T08:26:53.021Z,993.53
2018-11-10T08:27:53.020Z,993.52
2018-11-10T08:28:53.011Z,993.51
2018-11-10T08:29:53.005Z,993.53
2018-11-10T08:30:52.999Z,993.52
2018-11-10T08:31:52.992Z,993.54
2018-11-10T08:32:52.987Z,993.60
2018-11-10T08:33:52.979Z,993.57
2018-11-10T08:34:52.976Z,993.62
2018-11-10T08:35:52.970Z,993.63
2018-11-10T08:36:52.963Z,993.64
2018-11-10T08:37:52.956Z,993.65
2018-11-10T08:38:52.952Z,993.64
2018-11-10T08:39:52.948Z,993.64
2018-11-10T08:40:52.941Z,993.64
2018-11-10T08:41:52.933Z,993.62
2018-11-10T08:42:52.930Z,993.64
2018-11-10T08:43:52.930Z,993.63
2018-11-10T08:44:52.925Z,993.65
2018-11-10T08:45:52.915Z,993.69
2018-11-10T08:46:52.907Z,993.73
2018-11-10T08:47:52.899Z,993.74
2018-11-10T08:48:52.896Z,993.69
2018-11-10T08:49:52.912Z,993.64
2018-11-10T08:50:52.883Z,993.68
2018-11-10T08:51:52.880Z,993.64
2018-11-10T08:52:52.874Z,993.63
2018-11-10T08:53:52.865Z,993.66
2018-11-10T08:54:52.862Z,993.66
2018-11-10T08:55:52.856Z,993.66
2018-11-10T08:56:52.849Z,993.72
2018-11-10T08:57:52.846Z,993.75
2018-11-10T08:58:52.847Z,993.88
2018-11-10T08:59:52.840Z,993.84
2018-11-10T09:00:52.828Z,993.93
2018-11-10T09:01:52.822Z,993.96
2018-11-10T09:02:52.855Z,993.95
2018-11-10T09:03:52.810Z,993.93
2018-11-10T09:04:52.810Z,993.98
2018-11-10T09:05:52.801Z,994.03
2018-11-10T09:06:52.796Z,994.13
2018-11-10T09:07:52.790Z,994.15
2018-11-10T09:08:52.783Z,994.19
2018-11-10T09:09:52.864Z,994.22
2018-11-10T09:10:52.774Z,994.17
2018-11-10T09:11:52.767Z,994.17
2018-11-10T09:12:52.764Z,994.18
2018-11-10T09:13:52.780Z,994.18
2018-11-10T09:14:52.792Z,994.17
2018-11-10T09:15:52.776Z,994.15
2018-11-10T09:16:52.744Z,994.18
2018-11-10T09:17:52.781Z,994.18
2018-11-10T09:18:52.731Z,994.18
2018-11-10T09:19:52.735Z,994.20
2018-11-10T09:20:52.717Z,994.09
2018-11-10T09:21:52.716Z,994.05
2018-11-10T09:22:52.712Z,994.03
2018-11-10T09:23:52.711Z,994.01
2018-11-10T09:24:52.708Z,993.99
2018-11-10T09:25:52.696Z,993.98
2018-11-10T09:26:52.691Z,994.02
2018-11-10T09:27:52.683Z,994.02
2018-11-10T09:28:52.678Z,994.01
2018-11-10T09:29:52.679Z,993.98
2018-11-10T09:30:52.709Z,993.99
2018-11-10T09:31:52.668Z,993.98
2018-11-10T09:32:52.664Z,993.93
2018-11-10T09:33:52.662Z,993.92
2018-11-10T09:34:52.650Z,993.95
2018-11-10T09:35:52.657Z,993.95
2018-11-10T09:36:52.645Z,993.94
2018-11-10T09:37:52.642Z,993.94
2018-11-10T09:38:52.635Z,993.94
2018-11-10T09:39:52.631Z,993.97
2018-11-10T09:40:52.628Z,993.93
2018-11-10T09:41:52.679Z,994.00
2018-11-10T09:42:52.620Z,993.97
2018-11-10T09:43:52.613Z,994.03
2018-11-10T09:44:52.608Z,994.02
2018-11-10T09:45:52.609Z,994.02
2018-11-10T09:46:52.600Z,994.07
2018-11-10T09:47:52.595Z,994.07
2018-11-10T09:48:52.594Z,994.09
2018-11-10T09:49:52.627Z,994.08
2018-11-10T09:50:52.620Z,994.04
2018-11-10T09:51:52.580Z,994.04
2018-11-10T09:52:52.584Z,993.99
2018-11-10T09:53:52.592Z,993.96
2018-11-10T09:54:52.583Z,993.92
2018-11-10T09:55:52.562Z,993.90
2018-11-10T09:56:52.556Z,993.86
2018-11-10T09:57:52.567Z,993.88
2018-11-10T09:58:52.553Z,993.80
2018-11-10T09:59:52.544Z,993.81
2018-11-10T10:00:52.679Z,993.86
2018-11-10T10:01:52.718Z,993.83
2018-11-10T10:02:52.720Z,993.83
2018-11-10T10:03:52.525Z,993.86
2018-11-10T10:04:52.523Z,993.83
2018-11-10T10:05:52.520Z,993.76
2018-11-10T10:06:52.514Z,993.74
2018-11-10T10:07:52.518Z,993.68
2018-11-10T10:08:52.575Z,993.70
2018-11-10T10:09:52.506Z,993.69
2018-11-10T10:10:52.527Z,993.68
2018-11-10T10:11:52.493Z,993.66
2018-11-10T10:12:52.491Z,993.56
2018-11-10T10:13:52.485Z,993.56
2018-11-10T10:14:52.479Z,993.59
2018-11-10T10:15:52.514Z,993.63
2018-11-10T10:16:52.473Z,993.64
2018-11-10T10:17:52.470Z,993.70
2018-11-10T10:18:52.466Z,993.64
2018-11-10T10:19:52.469Z,993.65
2018-11-10T10:20:52.461Z,993.63
2018-11-10T10:21:52.520Z,993.57
2018-11-10T10:22:52.448Z,993.58
2018-11-10T10:23:52.447Z,993.52
2018-11-10T10:24:52.439Z,993.55
2018-11-10T10:25:52.436Z,993.54
2018-11-10T10:26:52.432Z,993.53
2018-11-10T10:27:52.430Z,993.48
2018-11-10T10:28:52.448Z,993.51
2018-11-10T10:29:52.420Z,993.52
2018-11-10T10:30:52.417Z,993.57
2018-11-10T10:31:52.413Z,993.57
2018-11-10T10:32:52.407Z,993.58
2018-11-10T10:33:52.422Z,993.56
2018-11-10T10:34:52.425Z,993.56
2018-11-10T10:35:52.398Z,993.55
2018-11-10T10:36:52.395Z,993.52
2018-11-10T10:37:52.388Z,993.51
2018-11-10T10:38:52.386Z,993.53
2018-11-10T10:39:52.386Z,993.54
2018-11-10T10:40:52.376Z,993.53
2018-11-10T10:41:52.377Z,993.57
2018-11-10T10:42:52.398Z,993.57
2018-11-10T10:43:52.374Z,993.54
2018-11-10T10:44:52.363Z,993.58
2018-11-10T10:45:52.360Z,993.53
2018-11-10T10:46:52.417Z,993.49
2018-11-10T10:47:52.354Z,993.48
2018-11-10T10:48:52.507Z,993.41
2018-11-10T10:49:52.346Z,993.45
2018-11-10T10:50:52.340Z,993.47
2018-11-10T10:51:52.340Z,993.40
2018-11-10T10:52:52.336Z,993.40
2018-11-10T10:53:52.333Z,993.38
2018-11-10T10:54:52.328Z,993.35
2018-11-10T10:55:52.388Z,993.38
2018-11-10T10:56:52.324Z,993.41
2018-11-10T10:57:52.318Z,993.38
2018-11-10T10:58:52.314Z,993.34
2018-11-10T10:59:52.310Z,993.35
2018-11-10T11:00:52.314Z,993.29
2018-11-10T11:01:52.302Z,993.28
2018-11-10T11:02:52.350Z,993.30
2018-11-10T11:03:52.299Z,993.29
2018-11-10T11:04:52.293Z,993.32
2018-11-10T11:05:52.290Z,993.26
2018-11-10T11:06:52.286Z,993.24
2018-11-10T11:07:52.283Z,993.25
2018-11-10T11:08:52.332Z,993.22
2018-11-10T11:09:53.278Z,993.18
2018-11-10T11:10:52.281Z,993.19
2018-11-10T11:11:52.300Z,993.22
2018-11-10T11:12:52.269Z,993.18
2018-11-10T11:13:52.261Z,993.17
2018-11-10T11:14:52.259Z,993.15
2018-11-10T11:15:52.302Z,993.12
2018-11-10T11:16:52.253Z,993.10
2018-11-10T11:17:52.272Z,993.05
2018-11-10T11:18:52.269Z,993.06
2018-11-10T11:19:52.250Z,993.09
2018-11-10T11:20:52.238Z,993.13
2018-11-10T11:21:52.295Z,993.11
2018-11-10T11:22:52.237Z,993.10
2018-11-10T11:23:52.232Z,993.13
2018-11-10T11:24:52.227Z,993.10
2018-11-10T11:25:52.229Z,993.12
2018-11-10T11:26:52.217Z,993.12
2018-11-10T11:27:52.221Z,993.13
2018-11-10T11:28:52.227Z,993.11
2018-11-10T11:29:52.307Z,993.11
2018-11-10T11:30:52.308Z,993.09
2018-11-10T11:31:52.206Z,993.09
2018-11-10T11:32:52.205Z,993.11
2018-11-10T11:33:52.260Z,993.08
2018-11-10T11:34:52.209Z,993.08
2018-11-10T11:35:52.202Z,993.04
2018-11-10T11:36:52.238Z,993.06
2018-11-10T11:37:52.193Z,993.03
2018-11-10T11:38:52.188Z,993.02
2018-11-10T11:39:52.184Z,993.03
2018-11-10T11:40:52.185Z,993.08
2018-11-10T11:41:52.264Z,993.05
2018-11-10T11:42:52.176Z,993.03
2018-11-10T11:43:52.176Z,993.08
2018-11-10T11:44:52.170Z,993.07
2018-11-10T11:45:52.197Z,993.04
2018-11-10T11:46:52.178Z,993.06
2018-11-10T11:47:52.165Z,993.05
2018-11-10T11:48:52.159Z,993.04
2018-11-10T11:49:52.209Z,993.01
2018-11-10T11:50:52.161Z,992.99
2018-11-10T11:51:52.153Z,993.02
2018-11-10T11:52:52.177Z,992.99
2018-11-10T11:53:52.148Z,992.96
2018-11-10T11:54:52.146Z,992.98
2018-11-10T11:55:52.150Z,992.99
2018-11-10T11:56:52.144Z,993.01
2018-11-10T11:57:52.225Z,992.99
2018-11-10T11:58:52.135Z,993.02
2018-11-10T11:59:52.133Z,993.01
2018-11-10T12:00:52.129Z,993.01
2018-11-10T12:01:52.128Z,993.00
2018-11-10T12:02:52.126Z,992.96
2018-11-10T12:03:52.119Z,992.96
2018-11-10T12:04:52.121Z,992.95
2018-11-10T12:05:52.125Z,992.98
2018-11-10T12:06:52.116Z,992.97
2018-11-10T12:07:52.125Z,992.94
2018-11-10T12:08:52.262Z,992.94
2018-11-10T12:09:52.107Z,992.90
2018-11-10T12:10:52.106Z,992.90
2018-11-10T12:11:52.101Z,992.88
2018-11-10T12:12:52.100Z,992.87
2018-11-10T12:13:52.097Z,992.85
2018-11-10T12:14:52.097Z,992.87
2018-11-10T12:15:52.094Z,992.86
2018-11-10T12:16:52.208Z,992.90
2018-11-10T12:17:52.093Z,992.87
2018-11-10T12:18:52.089Z,992.83
2018-11-10T12:19:52.245Z,992.91
2018-11-10T12:20:52.149Z,992.91
2018-11-10T12:21:52.144Z,992.81
2018-11-10T12:22:52.075Z,992.85
2018-11-10T12:23:52.075Z,992.86
2018-11-10T12:24:52.072Z,992.85
2018-11-10T12:25:52.068Z,992.87
2018-11-10T12:26:52.121Z,992.83
2018-11-10T12:27:52.116Z,992.82
2018-11-10T12:28:52.062Z,992.79